createdAt,value
2023-04-21T00:00:17.131Z,97883.75
2023-04-21T00:02:46.875Z,97896.38
2023-04-21T00:05:14.528Z,97891.78
2023-04-21T00:07:42.567Z,97891.78
2023-04-21T00:10:11.669Z,97891.69
2023-04-21T00:12:39.349Z,97895.50
2023-04-21T00:15:07.711Z,97894.72
2023-04-21T00:17:35.432Z,97888.13
2023-04-21T00:20:04.905Z,97883.84
2023-04-21T00:22:32.471Z,97887.78
2023-04-21T00:24:59.988Z,97891.34
2023-04-21T00:27:27.407Z,97890.13
2023-04-21T00:29:54.905Z,97890.78
2023-04-21T00:32:22.469Z,97885.44
2023-04-21T00:34:51.003Z,97879.59
2023-04-21T00:37:19.304Z,97886.66
2023-04-21T00:39:46.885Z,97879.06
2023-04-21T00:42:17.028Z,97891.25
2023-04-21T00:44:44.841Z,97882.63
2023-04-21T00:47:12.344Z,97878.16
2023-04-21T00:49:40.114Z,97879.28
2023-04-21T00:52:09.077Z,97878.50
2023-04-21T00:54:37.255Z,97875.13
2023-04-21T00:57:05.619Z,97880.06
2023-04-21T00:59:33.090Z,97877.25
2023-04-21T01:02:00.880Z,97880.41
2023-04-21T01:04:29.530Z,97863.63
2023-04-21T01:06:57.232Z,97877.03
2023-04-21T01:09:24.815Z,97884.00
2023-04-21T01:12:12.884Z,97875.81
2023-04-21T01:14:41.580Z,97876.91
2023-04-21T01:17:11.738Z,97870.88
2023-04-21T01:19:42.879Z,97866.84
2023-04-21T01:22:12.090Z,97878.03
2023-04-21T01:24:45.539Z,97876.81
2023-04-21T01:27:15.763Z,97863.91
2023-04-21T01:29:44.577Z,97877.28
2023-04-21T01:32:14.930Z,97869.75
2023-04-21T01:34:43.312Z,97880.16
2023-04-21T01:37:13.175Z,97878.09
2023-04-21T01:39:43.061Z,97879.78
2023-04-21T01:42:10.868Z,97878.75
2023-04-21T01:44:39.233Z,97879.19
2023-04-21T01:47:07.253Z,97878.88
2023-04-21T01:49:34.813Z,97878.28
2023-04-21T01:52:02.681Z,97879.16
2023-04-21T01:54:30.719Z,97875.91
2023-04-21T01:56:59.219Z,97866.72
2023-04-21T01:59:26.771Z,97876.72
2023-04-21T02:01:54.347Z,97867.56
2023-04-21T02:04:25.116Z,97876.06
2023-04-21T02:06:58.345Z,97881.19
2023-04-21T02:09:26.382Z,97876.28
2023-04-21T02:11:57.645Z,97878.09
2023-04-21T02:14:26.505Z,97866.47
2023-04-21T02:16:54.120Z,97884.09
2023-04-21T02:19:22.523Z,97888.19
2023-04-21T02:21:50.125Z,97887.31
2023-04-21T02:24:17.644Z,97883.31
2023-04-21T02:26:46.416Z,97888.25
2023-04-21T02:29:14.255Z,97883.34
2023-04-21T02:31:56.529Z,97879.13
2023-04-21T02:34:28.845Z,97888.06
2023-04-21T02:36:56.837Z,97885.09
2023-04-21T02:39:24.256Z,97882.81
2023-04-21T02:41:52.467Z,97886.69
2023-04-21T02:44:21.642Z,97892.25
2023-04-21T02:46:49.218Z,97884.38
2023-04-21T02:49:16.984Z,97879.41
2023-04-21T02:51:44.610Z,97885.56
2023-04-21T02:54:12.136Z,97885.78
2023-04-21T02:56:39.718Z,97881.63
2023-04-21T02:59:07.454Z,97887.03
2023-04-21T03:01:34.953Z,97882.25
2023-04-21T03:04:02.732Z,97885.94
2023-04-21T03:06:33.766Z,97884.59
2023-04-21T03:09:01.691Z,97887.13
2023-04-21T03:11:29.230Z,97889.41
2023-04-21T03:13:56.678Z,97887.00
2023-04-21T03:16:24.204Z,97877.31
2023-04-21T03:18:51.726Z,97887.97
2023-04-21T03:21:19.414Z,97889.25
2023-04-21T03:23:47.470Z,97879.38
2023-04-21T03:26:15.342Z,97887.31
2023-04-21T03:28:42.823Z,97879.22
2023-04-21T03:31:10.302Z,97887.13
2023-04-21T03:33:37.848Z,97880.47
2023-04-21T03:36:05.545Z,97882.47
2023-04-21T03:38:32.968Z,97879.78
2023-04-21T03:41:05.183Z,97886.88
2023-04-21T03:43:32.647Z,97880.16
2023-04-21T03:46:00.196Z,97884.25
2023-04-21T03:48:29.355Z,97889.38
2023-04-21T03:50:57.025Z,97881.31
2023-04-21T03:53:24.528Z,97885.91
2023-04-21T03:55:52.245Z,97880.47
2023-04-21T03:58:19.808Z,97876.91
2023-04-21T04:00:47.264Z,97872.16
2023-04-21T04:03:14.854Z,97870.34
2023-04-21T04:05:42.649Z,97873.84
2023-04-21T04:08:10.011Z,97876.13
2023-04-21T04:10:37.616Z,97871.91
2023-04-21T04:13:05.280Z,97867.72
2023-04-21T04:15:32.862Z,97861.00
2023-04-21T04:18:00.624Z,97863.91
2023-04-21T04:20:28.320Z,97863.28
2023-04-21T04:22:55.824Z,97864.25
2023-04-21T04:25:23.522Z,97848.88
2023-04-21T04:27:50.990Z,97857.91
2023-04-21T04:30:18.592Z,97855.66
2023-04-21T04:32:46.146Z,97853.38
2023-04-21T04:35:13.934Z,97849.59
2023-04-21T04:37:41.628Z,97847.22
2023-04-21T04:40:10.808Z,97851.16
2023-04-21T04:42:40.435Z,97842.69
2023-04-21T04:45:11.678Z,97844.81
2023-04-21T04:47:39.193Z,97835.41
2023-04-21T04:50:07.345Z,97842.56
2023-04-21T04:52:34.794Z,97838.31
2023-04-21T04:55:02.369Z,97833.84
2023-04-21T04:57:31.525Z,97831.84
2023-04-21T04:59:59.077Z,97828.81
2023-04-21T05:02:26.968Z,97828.81
2023-04-21T05:04:54.770Z,97829.31
2023-04-21T05:07:22.332Z,97826.78
2023-04-21T05:09:52.729Z,97825.97
2023-04-21T05:12:20.401Z,97827.25
2023-04-21T05:14:47.819Z,97827.03
2023-04-21T05:17:15.301Z,97821.97
2023-04-21T05:19:42.762Z,97828.38
2023-04-21T05:22:10.274Z,97823.81
2023-04-21T05:24:38.070Z,97815.16
2023-04-21T05:27:05.536Z,97816.88
2023-04-21T05:29:34.585Z,97813.16
2023-04-21T05:32:02.292Z,97806.41
2023-04-21T05:34:29.786Z,97807.56
2023-04-21T05:36:57.260Z,97813.19
2023-04-21T05:39:24.827Z,97810.69
2023-04-21T05:41:52.275Z,97812.69
2023-04-21T05:44:20.183Z,97814.06
2023-04-21T05:46:47.842Z,97809.41
2023-04-21T05:49:15.343Z,97807.22
2023-04-21T05:51:42.811Z,97805.53
2023-04-21T05:54:10.270Z,97802.22
2023-04-21T05:56:37.668Z,97787.94
2023-04-21T05:59:07.240Z,97794.97
2023-04-21T06:01:34.742Z,97789.91
2023-04-21T06:04:02.367Z,97799.91
2023-04-21T06:06:30.046Z,97784.50
2023-04-21T06:08:57.593Z,97778.88
2023-04-21T06:11:25.413Z,97781.16
2023-04-21T06:13:54.741Z,97783.25
2023-04-21T06:16:22.333Z,97778.19
2023-04-21T06:18:50.008Z,97774.56
2023-04-21T06:21:17.522Z,97769.41
2023-04-21T06:23:45.030Z,97767.19
2023-04-21T06:26:13.198Z,97741.06
2023-04-21T06:28:40.899Z,97764.44
2023-04-21T06:31:10.065Z,97771.72
2023-04-21T06:33:37.686Z,97761.06
2023-04-21T06:36:05.628Z,97765.88
2023-04-21T06:38:33.331Z,97762.56
2023-04-21T06:41:01.011Z,97763.66
2023-04-21T06:43:28.576Z,97753.84
2023-04-21T06:45:56.056Z,97765.00
2023-04-21T06:48:24.756Z,97765.97
2023-04-21T06:50:52.691Z,97761.56
2023-04-21T06:53:21.920Z,97760.16
2023-04-21T06:55:49.381Z,97756.44
2023-04-21T06:58:17.947Z,97749.41
2023-04-21T07:00:46.728Z,97752.19
2023-04-21T07:03:14.321Z,97750.56
2023-04-21T07:05:43.225Z,97745.09
2023-04-21T07:08:10.780Z,97747.00
2023-04-21T07:10:38.421Z,97746.91
2023-04-21T07:13:08.226Z,97742.38
2023-04-21T07:15:37.723Z,97735.47
2023-04-21T07:18:05.360Z,97727.56
2023-04-21T07:20:32.928Z,97730.84
2023-04-21T07:23:00.475Z,97727.31
2023-04-21T07:25:28.186Z,97724.31
2023-04-21T07:27:55.644Z,97721.06
2023-04-21T07:30:23.249Z,97715.97
2023-04-21T07:32:50.899Z,97706.09
2023-04-21T07:35:18.493Z,97706.84
2023-04-21T07:37:46.292Z,97703.47
2023-04-21T07:40:14.757Z,97710.47
2023-04-21T07:42:42.144Z,97704.81
2023-04-21T07:45:10.106Z,97702.91
2023-04-21T07:47:37.664Z,97695.06
2023-04-21T07:50:06.020Z,97693.53
2023-04-21T07:52:33.533Z,97687.44
2023-04-21T07:55:01.264Z,97691.31
2023-04-21T07:57:28.803Z,97693.94
2023-04-21T07:59:56.306Z,97693.69
2023-04-21T08:02:23.908Z,97680.97
2023-04-21T08:04:51.609Z,97680.63
2023-04-21T08:07:19.291Z,97681.84
2023-04-21T08:09:46.869Z,97673.84
2023-04-21T08:12:14.436Z,97673.03
2023-04-21T08:14:42.065Z,97672.97
2023-04-21T08:17:09.749Z,97671.22
2023-04-21T08:19:37.166Z,97672.44
2023-04-21T08:22:04.818Z,97676.03
2023-04-21T08:24:32.399Z,97673.09
2023-04-21T08:27:00.091Z,97657.31
2023-04-21T08:29:27.716Z,97666.88
2023-04-21T08:31:55.364Z,97673.16
2023-04-21T08:34:24.997Z,97666.75
2023-04-21T08:36:54.112Z,97666.81
2023-04-21T08:39:21.764Z,97658.75
2023-04-21T08:41:51.272Z,97678.63
2023-04-21T08:44:19.723Z,97662.59
2023-04-21T08:46:50.985Z,97679.66
2023-04-21T08:49:21.835Z,97675.09
2023-04-21T08:51:49.493Z,97663.31
2023-04-21T08:54:17.042Z,97653.97
2023-04-21T08:56:44.549Z,97643.09
2023-04-21T08:59:12.137Z,97649.69
2023-04-21T09:02:16.511Z,97660.88
2023-04-21T09:04:47.135Z,97663.97
2023-04-21T09:07:39.470Z,97660.25
2023-04-21T09:10:07.608Z,97657.31
2023-04-21T09:12:35.083Z,97654.41
2023-04-21T09:15:06.648Z,97657.78
2023-04-21T09:17:34.316Z,97666.63
2023-04-21T09:20:16.852Z,97664.38
2023-04-21T09:22:45.321Z,97654.47
2023-04-21T09:25:18.009Z,97666.75
2023-04-21T09:27:47.113Z,97663.53
2023-04-21T09:30:18.766Z,97660.91
2023-04-21T09:32:46.416Z,97664.38
2023-04-21T09:35:14.140Z,97666.25
2023-04-21T09:37:44.770Z,97666.16
2023-04-21T09:40:18.258Z,97661.72
2023-04-21T09:42:46.895Z,97661.75
2023-04-21T09:47:56.158Z,97646.72
2023-04-21T09:50:54.401Z,97643.69
2023-04-21T09:53:17.339Z,97643.03
2023-04-21T09:55:48.750Z,97643.25
2023-04-21T09:58:20.621Z,97641.38
2023-04-21T10:00:48.329Z,97637.84
2023-04-21T10:03:18.661Z,97644.31
2023-04-21T10:05:46.438Z,97632.16
2023-04-21T10:08:14.053Z,97635.50
2023-04-21T10:10:42.097Z,97637.34
2023-04-21T10:13:16.407Z,97643.31
2023-04-21T10:15:44.197Z,97636.50
2023-04-21T10:18:22.960Z,97638.31
2023-04-21T10:21:02.847Z,97628.25
2023-04-21T10:23:31.707Z,97633.78
2023-04-21T10:26:20.750Z,97634.94
2023-04-21T10:28:52.460Z,97619.09
2023-04-21T10:31:31.037Z,97614.56
2023-04-21T10:34:13.440Z,97607.44
2023-04-21T10:37:03.905Z,97615.00
2023-04-21T10:39:43.646Z,97612.91
2023-04-21T10:42:14.279Z,97605.38
2023-04-21T10:44:53.880Z,97598.66
2023-04-21T10:47:28.918Z,97590.81
2023-04-21T10:49:58.557Z,97586.56
2023-04-21T10:52:36.150Z,97589.94
2023-04-21T10:55:10.976Z,97577.66
2023-04-21T10:57:44.192Z,97578.09
2023-04-21T11:00:18.551Z,97576.00
2023-04-21T11:02:58.687Z,97568.66
2023-04-21T11:05:44.585Z,97566.69
2023-04-21T11:08:14.980Z,97558.97
2023-04-21T11:10:50.620Z,97568.31
2023-04-21T11:13:20.682Z,97557.84
2023-04-21T11:16:02.728Z,97552.06
2023-04-21T11:18:37.187Z,97557.84
2023-04-21T11:21:12.680Z,97542.16
2023-04-21T11:23:42.186Z,97549.03
2023-04-21T11:26:09.709Z,97536.94
2023-04-21T11:28:37.190Z,97533.22
2023-04-21T11:31:05.219Z,97536.19
2023-04-21T11:33:39.472Z,97543.22
2023-04-21T11:36:08.030Z,97544.00
2023-04-21T11:38:42.177Z,97534.59
2023-04-21T11:41:11.182Z,97528.75
2023-04-21T11:43:39.124Z,97526.63
2023-04-21T11:46:19.145Z,97542.16
2023-04-21T11:48:47.277Z,97523.25
2023-04-21T11:51:21.374Z,97526.25
2023-04-21T11:53:49.874Z,97513.94
2023-04-21T11:56:23.750Z,97512.44
2023-04-21T11:58:53.081Z,97516.13
2023-04-21T12:01:23.589Z,97511.75
2023-04-21T12:03:56.122Z,97511.88
2023-04-21T12:06:31.834Z,97506.66
2023-04-21T12:09:03.211Z,97486.63
2023-04-21T12:11:32.094Z,97489.13
2023-04-21T12:14:00.444Z,97483.84
2023-04-21T12:16:31.052Z,97479.97
2023-04-21T12:18:58.641Z,97471.41
2023-04-21T12:21:30.646Z,97468.44
2023-04-21T12:23:58.224Z,97463.56
2023-04-21T12:26:25.801Z,97458.00
2023-04-21T12:28:53.880Z,97453.22
2023-04-21T12:31:21.454Z,97455.38
2023-04-21T12:33:49.122Z,97452.94
2023-04-21T12:36:17.029Z,97450.56
2023-04-21T12:38:44.979Z,97447.31
2023-04-21T12:41:12.450Z,97444.22
2023-04-21T12:43:39.920Z,97453.25
2023-04-21T12:46:07.587Z,97457.66
2023-04-21T12:48:35.131Z,97473.22
2023-04-21T12:51:05.468Z,97514.22
2023-04-21T12:53:32.885Z,97560.94
2023-04-21T12:56:04.488Z,97583.63
2023-04-21T12:58:32.845Z,97593.28
2023-04-21T13:01:00.295Z,97593.28
2023-04-21T13:03:28.029Z,97596.25
2023-04-21T13:05:55.746Z,97614.66
2023-04-21T13:08:23.170Z,97625.53
2023-04-21T13:10:50.694Z,97637.03
2023-04-21T13:13:18.290Z,97650.06
2023-04-21T13:15:46.042Z,97633.81
2023-04-21T13:18:13.492Z,97596.91
2023-04-21T13:20:41.060Z,97573.75
2023-04-21T13:23:09.087Z,97567.66
2023-04-21T13:25:36.595Z,97567.03
2023-04-21T13:28:04.307Z,97565.81
2023-04-21T13:30:31.862Z,97563.88
2023-04-21T13:32:59.445Z,97566.28
2023-04-21T13:35:26.974Z,97568.22
2023-04-21T13:37:54.810Z,97574.91
2023-04-21T13:40:22.373Z,97567.50
2023-04-21T13:42:50.062Z,97565.59
2023-04-21T13:45:17.585Z,97560.97
2023-04-21T13:47:45.240Z,97551.06
2023-04-21T13:50:13.050Z,97538.34
2023-04-21T13:52:40.990Z,97536.97
2023-04-21T13:55:08.835Z,97532.84
2023-04-21T13:57:36.607Z,97508.81
2023-04-21T14:00:15.271Z,97512.16
2023-04-21T14:02:42.954Z,97507.59
2023-04-21T14:05:10.777Z,97518.16
2023-04-21T14:07:38.764Z,97476.66
2023-04-21T14:10:06.953Z,97504.94
2023-04-21T14:12:34.525Z,97494.16
2023-04-21T14:15:02.148Z,97492.25
2023-04-21T14:17:31.030Z,97498.81
2023-04-21T14:19:58.601Z,97495.41
2023-04-21T14:22:26.155Z,97496.53
2023-04-21T14:24:53.640Z,97491.88
2023-04-21T14:27:21.485Z,97498.75
2023-04-21T14:29:49.043Z,97503.06
2023-04-21T14:32:16.815Z,97509.25
2023-04-21T14:34:44.412Z,97499.22
2023-04-21T14:37:11.901Z,97502.75
2023-04-21T14:39:39.470Z,97510.09
2023-04-21T14:42:06.975Z,97507.50
2023-04-21T14:44:35.885Z,97518.78
2023-04-21T14:47:09.630Z,97531.63
2023-04-21T14:49:38.798Z,97538.59
2023-04-21T14:52:07.272Z,97540.22
2023-04-21T14:54:34.898Z,97571.25
2023-04-21T14:57:14.800Z,97586.03
2023-04-21T14:59:47.113Z,97610.03
2023-04-21T15:02:14.923Z,97631.41
2023-04-21T15:04:42.601Z,97636.84
2023-04-21T15:07:10.215Z,97641.13
2023-04-21T15:09:39.040Z,97613.19
2023-04-21T15:12:07.071Z,97610.09
2023-04-21T15:14:34.620Z,97590.66
2023-04-21T15:17:02.305Z,97558.53
2023-04-21T15:19:29.819Z,97541.03
2023-04-21T15:21:57.921Z,97522.53
2023-04-21T15:24:25.482Z,97506.22
2023-04-21T15:26:53.428Z,97505.09
2023-04-21T15:29:20.938Z,97528.81
2023-04-21T15:31:48.580Z,97531.94
2023-04-21T15:34:15.988Z,97532.34
2023-04-21T15:36:43.474Z,97536.56
2023-04-21T15:39:14.337Z,97536.66
2023-04-21T15:41:41.987Z,97532.81
2023-04-21T15:44:09.656Z,97538.97
2023-04-21T15:46:37.294Z,97531.97
2023-04-21T15:49:04.883Z,97538.53
2023-04-21T15:51:35.939Z,97528.84
2023-04-21T15:54:04.923Z,97533.78
2023-04-21T15:56:32.559Z,97522.91
2023-04-21T15:59:00.025Z,97527.09
2023-04-21T16:01:27.577Z,97532.16
2023-04-21T16:03:55.971Z,97545.72
2023-04-21T16:06:25.420Z,97551.19
2023-04-21T16:08:53.049Z,97540.75
2023-04-21T16:11:21.052Z,97541.19
2023-04-21T16:13:49.742Z,97537.72
2023-04-21T16:16:17.332Z,97542.78
2023-04-21T16:18:44.851Z,97542.38
2023-04-21T16:21:12.552Z,97548.97
2023-04-21T16:23:40.395Z,97552.44
2023-04-21T16:26:09.316Z,97553.63
2023-04-21T16:28:36.925Z,97525.75
2023-04-21T16:31:04.591Z,97547.06
2023-04-21T16:33:32.604Z,97543.59
2023-04-21T16:36:00.206Z,97544.38
2023-04-21T16:38:27.723Z,97530.44
2023-04-21T16:40:55.416Z,97528.88
2023-04-21T16:43:23.008Z,97530.47
2023-04-21T16:45:50.694Z,97533.91
2023-04-21T16:48:18.589Z,97534.31
2023-04-21T16:50:46.544Z,97534.69
2023-04-21T16:53:14.239Z,97513.38
2023-04-21T16:55:41.778Z,97525.00
2023-04-21T16:58:09.251Z,97518.44
2023-04-21T17:00:38.516Z,97512.25
2023-04-21T17:03:06.379Z,97505.69
2023-04-21T17:05:34.201Z,97492.91
2023-04-21T17:08:01.818Z,97494.44
2023-04-21T17:10:29.346Z,97500.25
2023-04-21T17:12:56.865Z,97496.00
2023-04-21T17:15:24.630Z,97490.56
2023-04-21T17:17:52.218Z,97488.25
2023-04-21T17:20:19.711Z,97475.84
2023-04-21T17:22:47.292Z,97483.22
2023-04-21T17:25:14.830Z,97476.63
2023-04-21T17:27:42.497Z,97490.16
2023-04-21T17:30:10.493Z,97480.41
2023-04-21T17:32:38.490Z,97486.63
2023-04-21T17:35:06.294Z,97482.34
2023-04-21T17:37:34.905Z,97481.19
2023-04-21T17:40:03.266Z,97486.16
2023-04-21T17:42:31.983Z,97484.13
2023-04-21T17:44:59.603Z,97484.53
2023-04-21T17:47:27.329Z,97476.78
2023-04-21T17:49:55.034Z,97482.47
2023-04-21T17:52:22.565Z,97466.97
2023-04-21T17:54:50.015Z,97472.69
2023-04-21T17:57:17.617Z,97479.56
2023-04-21T17:59:45.164Z,97473.66
2023-04-21T18:02:12.746Z,97464.72
2023-04-21T18:04:40.678Z,97455.25
2023-04-21T18:07:08.574Z,97457.94
2023-04-21T18:09:36.057Z,97461.34
2023-04-21T18:12:04.278Z,97462.03
2023-04-21T18:14:32.049Z,97453.50
2023-04-21T18:16:59.498Z,97447.72
2023-04-21T18:19:27.245Z,97442.25
2023-04-21T18:21:54.895Z,97439.94
2023-04-21T18:24:22.441Z,97445.16
2023-04-21T18:26:51.595Z,97448.25
2023-04-21T18:29:19.892Z,97446.59
2023-04-21T18:31:47.707Z,97443.47
2023-04-21T18:34:15.500Z,97438.00
2023-04-21T18:36:43.282Z,97436.44
2023-04-21T18:39:11.224Z,97433.22
2023-04-21T18:41:39.029Z,97434.34
2023-04-21T18:44:06.954Z,97435.91
2023-04-21T18:46:34.523Z,97431.16
2023-04-21T18:49:02.117Z,97433.41
2023-04-21T18:51:31.657Z,97427.91
2023-04-21T18:53:59.144Z,97434.91
2023-04-21T18:56:27.386Z,97434.19
2023-04-21T18:58:54.989Z,97433.38
2023-04-21T19:01:22.561Z,97431.72
2023-04-21T19:03:50.555Z,97427.34
2023-04-21T19:06:18.138Z,97423.19
2023-04-21T19:08:45.622Z,97422.25
2023-04-21T19:11:15.652Z,97428.03
2023-04-21T19:13:43.151Z,97421.81
2023-04-21T19:16:11.935Z,97444.53
2023-04-21T19:18:39.556Z,97425.63
2023-04-21T19:21:07.396Z,97425.72
2023-04-21T19:23:34.904Z,97424.19
2023-04-21T19:26:05.433Z,97424.59
2023-04-21T19:28:33.079Z,97424.59
2023-04-21T19:31:00.505Z,97424.66
2023-04-21T19:33:28.287Z,97430.91
2023-04-21T19:35:56.305Z,97427.53
2023-04-21T19:38:23.917Z,97414.44
2023-04-21T19:40:51.315Z,97419.19
2023-04-21T19:43:20.546Z,97420.03
2023-04-21T19:45:48.680Z,97418.97
2023-04-21T19:48:16.458Z,97410.97
2023-04-21T19:50:44.142Z,97414.06
2023-04-21T19:53:15.004Z,97406.44
2023-04-21T19:55:43.270Z,97401.88
2023-04-21T19:58:10.880Z,97400.31
2023-04-21T20:00:38.538Z,97408.00
2023-04-21T20:03:07.412Z,97398.75
2023-04-21T20:05:35.174Z,97404.44
2023-04-21T20:08:02.601Z,97411.41
2023-04-21T20:10:30.089Z,97413.00
2023-04-21T20:12:57.554Z,97399.06
2023-04-21T20:15:25.129Z,97403.31
2023-04-21T20:17:52.622Z,97401.47
2023-04-21T20:20:20.181Z,97401.09
2023-04-21T20:22:48.608Z,97403.81
2023-04-21T20:25:16.048Z,97395.72
2023-04-21T20:27:43.742Z,97398.03
2023-04-21T20:30:16.275Z,97400.38
2023-04-21T20:32:45.287Z,97389.56
2023-04-21T20:35:16.301Z,97402.25
2023-04-21T20:37:47.576Z,97406.91
2023-04-21T20:40:15.067Z,97401.09
2023-04-21T20:42:45.278Z,97393.81
2023-04-21T20:45:13.150Z,97395.72
2023-04-21T20:47:40.714Z,97393.81
2023-04-21T20:50:08.536Z,97389.56
2023-04-21T20:52:36.926Z,97394.63
2023-04-21T20:55:04.552Z,97386.53
2023-04-21T20:57:33.284Z,97392.28
2023-04-21T21:00:00.901Z,97374.56
2023-04-21T21:02:28.494Z,97380.03
2023-04-21T21:04:56.095Z,97383.50
2023-04-21T21:07:23.680Z,97384.31
2023-04-21T21:09:51.144Z,97387.78
2023-04-21T21:12:18.654Z,97383.16
2023-04-21T21:14:46.276Z,97385.09
2023-04-21T21:17:16.524Z,97382.41
2023-04-21T21:19:45.656Z,97379.72
2023-04-21T21:22:13.102Z,97380.91
2023-04-21T21:24:40.730Z,97380.09
2023-04-21T21:27:08.457Z,97386.25
2023-04-21T21:29:36.361Z,97390.88
2023-04-21T21:32:04.173Z,97389.31
2023-04-21T21:34:31.821Z,97392.44
2023-04-21T21:36:59.320Z,97392.41
2023-04-21T21:39:27.483Z,97395.53
2023-04-21T21:41:54.926Z,97381.22
2023-04-21T21:44:22.465Z,97380.47
2023-04-21T21:46:51.131Z,97397.09
2023-04-21T21:49:18.699Z,97388.19
2023-04-21T21:51:46.203Z,97388.94
2023-04-21T21:54:13.709Z,97381.94
2023-04-21T21:56:42.285Z,97393.50
2023-04-21T21:59:09.747Z,97391.16
2023-04-21T22:01:37.168Z,97394.97
2023-04-21T22:04:05.585Z,97405.06
2023-04-21T22:06:35.035Z,97394.25
2023-04-21T22:09:02.498Z,97394.25
2023-04-21T22:11:30.091Z,97400.00
2023-04-21T22:14:00.678Z,97402.31
2023-04-21T22:16:32.793Z,97396.16
2023-04-21T22:19:00.238Z,97393.84
2023-04-21T22:21:28.093Z,97395.78
2023-04-21T22:23:55.672Z,97394.19
2023-04-21T22:26:23.101Z,97396.88
2023-04-21T22:28:52.401Z,97392.97
2023-04-21T22:31:19.975Z,97396.81
2023-04-21T22:33:47.440Z,97398.69
2023-04-21T22:36:14.909Z,97389.84
2023-04-21T22:38:43.949Z,97395.59
2023-04-21T22:41:11.550Z,97374.66
2023-04-21T22:43:39.063Z,97397.09
2023-04-21T22:46:07.253Z,97399.06
2023-04-21T22:48:36.501Z,97401.75
2023-04-21T22:51:05.084Z,97402.94
2023-04-21T22:53:32.450Z,97399.47
2023-04-21T22:56:00.142Z,97396.75
2023-04-21T22:58:27.654Z,97404.81
2023-04-21T23:00:55.316Z,97402.19
2023-04-21T23:03:23.603Z,97404.88
2023-04-21T23:05:51.294Z,97406.00
2023-04-21T23:08:18.812Z,97404.06
2023-04-21T23:10:46.401Z,97400.91
2023-04-21T23:13:14.035Z,97409.41
2023-04-21T23:15:41.535Z,97407.88
2023-04-21T23:18:09.133Z,97404.38
2023-04-21T23:20:36.833Z,97411.28
2023-04-21T23:23:04.341Z,97412.09
2023-04-21T23:25:31.867Z,97406.28
2023-04-21T23:27:59.491Z,97406.28
2023-04-21T23:30:27.014Z,97404.31
2023-04-21T23:32:54.625Z,97397.72
2023-04-21T23:35:22.334Z,97401.41
2023-04-21T23:37:49.775Z,97399.84
2023-04-21T23:40:17.272Z,97402.91
2023-04-21T23:42:47.512Z,97399.78
2023-04-21T23:45:15.980Z,97399.41
2023-04-21T23:47:43.492Z,97393.69
2023-04-21T23:50:11.485Z,97405.63
2023-04-21T23:52:39.790Z,97400.22
2023-04-21T23:55:08.533Z,97412.56
2023-04-21T23:57:36.464Z,97409.88
